Time;durP1;ratioP1;P1;durP2;ratioP2;P2;SDS_P1;SDS_P2;PMS_P1;PMS_P2;Temp;Humidity;BMP_temperature;BMP_pressure;BME280_temperature;BME280_humidity;BME280_pressure;Samples;Min_cycle;Max_cycle;Signal;HPM_P1;HPM_P2
2023/03/30 00:00:59;;;;;;;6.40;3.35;;;13.70;96.70;;;;;;5008771;28;20081;-70
2023/03/30 00:03:28;;;;;;;6.78;2.88;;;13.60;96.70;;;;;;5019758;28;20079;-70
2023/03/30 00:06:03;;;;;;;7.78;3.50;;;13.60;96.70;;;;;;5009478;28;20708;-71
2023/03/30 00:08:36;;;;;;;6.40;2.75;;;13.70;96.70;;;;;;5017764;28;20517;-70
2023/03/30 00:11:06;;;;;;;6.93;3.40;;;13.70;96.70;;;;;;4991614;28;20058;-70
2023/03/30 00:13:36;;;;;;;5.43;2.95;;;13.70;96.70;;;;;;5015078;28;20046;-70
2023/03/30 00:16:06;;;;;;;4.30;2.67;;;13.70;96.70;;;;;;5010026;28;20041;-70
2023/03/30 00:18:35;;;;;;;4.35;2.58;;;13.70;96.70;;;;;;5023344;28;20056;-70
2023/03/30 00:21:06;;;;;;;5.18;2.53;;;13.60;96.70;;;;;;5007800;28;20052;-70
2023/03/30 00:23:34;;;;;;;6.40;2.90;;;13.60;96.70;;;;;;5006973;28;20166;-71
2023/03/30 00:26:02;;;;;;;7.47;2.97;;;13.70;96.70;;;;;;5003095;28;20152;-70
2023/03/30 00:28:30;;;;;;;8.60;2.97;;;13.60;96.70;;;;;;5028392;28;20048;-70
2023/03/30 00:30:58;;;;;;;5.80;3.13;;;13.60;96.70;;;;;;5020992;28;20045;-70
2023/03/30 00:33:26;;;;;;;7.03;3.25;;;13.60;96.70;;;;;;5007448;28;20060;-70
2023/03/30 00:36:13;;;;;;;6.90;3.05;;;13.60;96.70;;;;;;4991542;28;20060;-71
2023/03/30 00:38:41;;;;;;;9.10;3.03;;;13.60;96.70;;;;;;5000615;28;20107;-70
2023/03/30 00:41:09;;;;;;;6.53;3.25;;;13.60;96.70;;;;;;5015206;28;20052;-70
2023/03/30 00:43:56;;;;;;;8.30;2.92;;;13.60;96.70;;;;;;4991955;28;20045;-70
2023/03/30 00:46:24;;;;;;;6.38;3.00;;;13.60;96.70;;;;;;5016955;28;20483;-70
2023/03/30 00:48:56;;;;;;;4.95;2.78;;;13.60;96.70;;;;;;5006849;28;20046;-70
2023/03/30 00:51:27;;;;;;;4.90;3.30;;;13.60;96.70;;;;;;5014168;28;20038;-71
2023/03/30 00:54:02;;;;;;;5.53;3.25;;;13.50;96.70;;;;;;5015384;28;20099;-70
2023/03/30 00:56:30;;;;;;;7.85;3.45;;;13.50;96.70;;;;;;5012829;28;20045;-70
2023/03/30 00:59:01;;;;;;;5.60;3.50;;;13.50;96.70;;;;;;4999459;28;20066;-71
2023/03/30 01:01:37;;;;;;;8.43;3.35;;;13.40;96.70;;;;;;4991965;28;20152;-70
2023/03/30 01:04:08;;;;;;;5.03;3.05;;;13.40;96.70;;;;;;4997116;28;20119;-70
2023/03/30 01:06:39;;;;;;;6.50;3.22;;;13.40;96.70;;;;;;5011741;28;20243;-70
2023/03/30 01:09:08;;;;;;;6.40;3.28;;;13.40;96.70;;;;;;5024529;28;20053;-70
2023/03/30 01:11:36;;;;;;;7.78;3.47;;;13.40;96.70;;;;;;5008617;28;20042;-70
2023/03/30 01:14:06;;;;;;;5.97;2.92;;;13.40;96.70;;;;;;5005282;28;20049;-70
2023/03/30 01:16:41;;;;;;;7.53;3.33;;;13.30;96.70;;;;;;4996914;28;20359;-70
2023/03/30 01:19:31;;;;;;;7.78;3.50;;;13.30;96.70;;;;;;5010354;28;20420;-70
2023/03/30 01:22:33;;;;;;;7.60;3.13;;;13.30;96.70;;;;;;5016295;28;20071;-70
2023/03/30 01:25:44;;;;;;;5.20;3.03;;;13.30;96.70;;;;;;4995059;28;20053;-71
2023/03/30 01:28:28;;;;;;;6.38;3.40;;;13.30;96.70;;;;;;5013269;28;20037;-70
2023/03/30 01:31:27;;;;;;;7.22;3.13;;;13.30;96.70;;;;;;4992990;28;20081;-70
2023/03/30 01:34:30;;;;;;;5.30;3.30;;;13.30;96.70;;;;;;5020962;28;20152;-70
2023/03/30 01:37:23;;;;;;;7.53;3.40;;;13.30;96.70;;;;;;5019999;28;20072;-70
2023/03/30 01:39:58;;;;;;;5.78;4.00;;;13.20;96.70;;;;;;5017192;28;20139;-70
2023/03/30 01:42:36;;;;;;;5.47;3.10;;;13.20;96.70;;;;;;5022340;28;20042;-70
2023/03/30 01:45:10;;;;;;;6.22;3.70;;;13.20;96.70;;;;;;5022813;28;20041;-70
2023/03/30 01:47:44;;;;;;;8.40;3.53;;;13.10;96.70;;;;;;5013795;28;20127;-70
2023/03/30 01:50:16;;;;;;;5.47;3.60;;;13.10;96.70;;;;;;5015266;28;20049;-70
2023/03/30 01:52:52;;;;;;;6.88;3.47;;;13.10;96.70;;;;;;5010096;28;20530;-70
2023/03/30 01:55:28;;;;;;;7.25;3.60;;;13.10;96.70;;;;;;4992816;28;20830;-71
2023/03/30 01:58:02;;;;;;;9.85;4.00;;;13.10;96.70;;;;;;4995818;28;20141;-70
2023/03/30 02:00:30;;;;;;;4.80;3.00;;;13.00;96.70;;;;;;4998197;28;20055;-70
2023/03/30 02:03:05;;;;;;;7.28;3.75;;;13.00;96.70;;;;;;4979844;28;20072;-70
2023/03/30 02:05:34;;;;;;;6.15;3.75;;;13.00;96.70;;;;;;5023192;28;20187;-69
2023/03/30 02:08:10;;;;;;;7.43;3.20;;;13.00;96.70;;;;;;5002990;28;20050;-71
2023/03/30 02:10:41;;;;;;;8.43;3.65;;;13.00;96.70;;;;;;5001253;28;20054;-70
2023/03/30 02:13:10;;;;;;;7.90;3.60;;;13.00;96.70;;;;;;4987375;28;20053;-70
2023/03/30 02:15:43;;;;;;;5.18;3.28;;;13.00;96.70;;;;;;5013440;28;20040;-71
2023/03/30 02:18:12;;;;;;;4.63;3.47;;;12.90;96.70;;;;;;4986020;28;20053;-70
2023/03/30 02:20:41;;;;;;;9.23;4.40;;;12.90;96.70;;;;;;4988380;28;20542;-71
2023/03/30 02:23:10;;;;;;;7.15;3.63;;;12.90;96.70;;;;;;5001191;28;20053;-70
2023/03/30 02:25:40;;;;;;;5.68;3.58;;;12.90;96.70;;;;;;4996028;28;20092;-70
2023/03/30 02:28:09;;;;;;;7.10;3.40;;;12.90;96.70;;;;;;4986022;28;20044;-70
2023/03/30 02:30:42;;;;;;;6.50;3.58;;;12.80;96.70;;;;;;4994117;28;20072;-70
2023/03/30 02:33:23;;;;;;;7.10;3.42;;;12.80;96.70;;;;;;5003492;28;20103;-70
2023/03/30 02:36:24;;;;;;;7.43;3.40;;;12.80;96.70;;;;;;5004048;28;20049;-70
2023/03/30 02:39:04;;;;;;;5.82;3.60;;;12.80;96.70;;;;;;5002412;28;20573;-70
2023/03/30 02:41:59;;;;;;;7.20;3.47;;;12.80;96.70;;;;;;5006123;28;20038;-70
2023/03/30 02:44:36;;;;;;;6.90;3.67;;;12.80;96.70;;;;;;4997438;28;20531;-70
2023/03/30 02:47:08;;;;;;;5.47;3.55;;;12.80;96.70;;;;;;5001485;28;20261;-70
2023/03/30 02:49:55;;;;;;;6.13;3.42;;;12.70;96.70;;;;;;4987762;28;20053;-70
2023/03/30 02:52:36;;;;;;;8.38;3.53;;;12.70;96.70;;;;;;4994589;28;20087;-70
2023/03/30 02:55:13;;;;;;;7.95;3.75;;;12.70;96.70;;;;;;5001060;28;20049;-70
2023/03/30 02:58:10;;;;;;;6.75;3.40;;;12.70;96.70;;;;;;5004508;28;20519;-69
2023/03/30 03:00:44;;;;;;;6.95;3.50;;;12.70;96.70;;;;;;5008750;28;20054;-70
2023/03/30 03:03:22;;;;;;;7.15;3.33;;;12.70;96.70;;;;;;5003445;28;20069;-69
2023/03/30 03:05:54;;;;;;;5.80;3.40;;;12.70;96.70;;;;;;5011241;28;20056;-69
2023/03/30 03:08:32;;;;;;;5.18;3.28;;;12.60;96.70;;;;;;4990607;28;20136;-70
2023/03/30 03:11:02;;;;;;;6.95;3.63;;;12.60;96.70;;;;;;4991583;28;20053;-70
2023/03/30 03:13:32;;;;;;;6.40;3.33;;;12.70;96.70;;;;;;4988143;28;20060;-70
2023/03/30 03:16:00;;;;;;;8.15;3.88;;;12.60;96.70;;;;;;4996152;28;20759;-70
2023/03/30 03:18:33;;;;;;;7.07;3.83;;;12.70;96.70;;;;;;4995955;28;20049;-70
2023/03/30 03:21:01;;;;;;;5.57;3.08;;;12.70;96.70;;;;;;5004462;28;20060;-70
2023/03/30 03:23:30;;;;;;;5.38;3.08;;;12.70;96.70;;;;;;5004909;28;20140;-69
2023/03/30 03:25:59;;;;;;;5.70;2.75;;;12.60;96.70;;;;;;4995566;28;20566;-70
2023/03/30 03:28:28;;;;;;;5.88;2.85;;;12.60;96.70;;;;;;5001777;28;20152;-69
2023/03/30 03:31:05;;;;;;;5.43;3.08;;;12.60;96.70;;;;;;4995177;28;20511;-70
2023/03/30 03:33:35;;;;;;;7.35;3.05;;;12.60;96.70;;;;;;4997440;28;20766;-70
2023/03/30 03:36:24;;;;;;;;;;;12.60;96.70;;;;;;4986588;28;20044;-70
2023/03/30 03:38:53;;;;;;;8.68;3.65;;;12.60;96.70;;;;;;5002729;28;19929;-69
2023/03/30 03:41:21;;;;;;;7.00;3.10;;;12.60;96.70;;;;;;5004637;28;20045;-70
2023/03/30 03:43:49;;;;;;;5.82;3.28;;;12.50;96.70;;;;;;5012964;28;20080;-70
2023/03/30 03:46:20;;;;;;;5.97;3.38;;;12.50;96.70;;;;;;5004263;28;20525;-70
2023/03/30 03:48:48;;;;;;;5.70;3.22;;;12.40;96.70;;;;;;5002571;28;20053;-70
2023/03/30 03:51:16;;;;;;;8.32;4.03;;;12.40;96.70;;;;;;5003115;28;20053;-70
2023/03/30 03:53:44;;;;;;;7.20;3.40;;;12.40;96.70;;;;;;4986586;28;20136;-70
2023/03/30 03:56:13;;;;;;;8.85;3.70;;;12.40;96.70;;;;;;4995313;28;20042;-70
2023/03/30 03:58:41;;;;;;;8.77;3.67;;;12.50;96.70;;;;;;5003498;28;20041;-70
2023/03/30 04:01:13;;;;;;;7.80;3.67;;;12.50;96.70;;;;;;5000342;28;20054;-69
2023/03/30 04:03:42;;;;;;;8.23;3.65;;;12.50;96.70;;;;;;5001400;28;20529;-70
2023/03/30 04:06:11;;;;;;;7.00;3.20;;;12.40;96.70;;;;;;5010565;28;20044;-70
2023/03/30 04:08:39;;;;;;;7.32;3.08;;;12.40;96.70;;;;;;4992695;28;20048;-70
2023/03/30 04:11:20;;;;;;;4.60;2.67;;;12.40;96.70;;;;;;4994877;28;20045;-71
2023/03/30 04:14:20;;;;;;;5.07;3.35;;;12.40;96.70;;;;;;4974744;28;20469;-69
2023/03/30 04:17:17;;;;;;;10.00;3.15;;;12.40;96.70;;;;;;4935214;28;20111;-70
2023/03/30 04:20:04;;;;;;;7.82;3.28;;;12.40;96.70;;;;;;4997827;28;20053;-69
2023/03/30 04:22:55;;;;;;;6.57;3.17;;;12.30;96.70;;;;;;4988591;28;20120;-69
2023/03/30 04:25:29;;;;;;;4.45;2.78;;;12.30;96.70;;;;;;5016119;28;20399;-70
2023/03/30 04:28:28;;;;;;;7.82;3.13;;;12.30;96.70;;;;;;4997719;28;20057;-70
2023/03/30 04:31:09;;;;;;;8.05;3.17;;;12.20;96.70;;;;;;4969817;28;20060;-70
2023/03/30 04:33:55;;;;;;;8.02;3.08;;;12.10;96.70;;;;;;5003602;28;20076;-70
2023/03/30 04:36:43;;;;;;;9.80;2.87;;;12.20;96.70;;;;;;5014843;28;20056;-70
2023/03/30 04:39:30;;;;;;;6.30;2.78;;;12.10;96.70;;;;;;4988617;28;20300;-71
2023/03/30 04:42:05;;;;;;;5.18;2.88;;;12.20;96.70;;;;;;5010421;28;20748;-70
2023/03/30 04:44:45;;;;;;;12.27;3.22;;;12.20;96.70;;;;;;4997581;28;20045;-70
2023/03/30 04:47:17;;;;;;;5.50;2.85;;;12.20;96.70;;;;;;5001283;28;20045;-70
2023/03/30 04:50:15;;;;;;;10.32;3.22;;;12.20;96.70;;;;;;4967709;28;20500;-70
2023/03/30 04:53:07;;;;;;;7.63;2.60;;;12.20;96.70;;;;;;5005462;28;20056;-71
2023/03/30 04:55:54;;;;;;;7.22;2.65;;;12.20;96.70;;;;;;5006675;28;20550;-70
2023/03/30 04:58:42;;;;;;;8.45;3.00;;;12.20;96.70;;;;;;4991410;28;20065;-71
2023/03/30 05:01:23;;;;;;;7.03;3.17;;;12.30;96.70;;;;;;4995007;28;20054;-70
2023/03/30 05:04:10;;;;;;;7.90;3.47;;;12.30;96.70;;;;;;5011700;28;20103;-71
2023/03/30 05:06:43;;;;;;;8.07;2.83;;;12.20;96.70;;;;;;5009750;28;20388;-71
2023/03/30 05:09:43;;;;;;;6.20;2.75;;;12.30;96.70;;;;;;4992464;28;20144;-71
2023/03/30 05:12:31;;;;;;;5.60;3.10;;;12.40;96.70;;;;;;4974744;28;20045;-70
2023/03/30 05:15:19;;;;;;;7.57;2.97;;;12.40;96.70;;;;;;5016079;28;20053;-70
2023/03/30 05:18:02;;;;;;;8.48;3.15;;;12.40;96.70;;;;;;5008871;28;20029;-71
2023/03/30 05:20:59;;;;;;;8.40;2.35;;;12.30;96.70;;;;;;4999960;28;20057;-70
2023/03/30 05:23:46;;;;;;;5.93;2.53;;;12.20;96.70;;;;;;5016201;28;20049;-71
2023/03/30 05:26:51;;;;;;;4.07;2.33;;;12.20;96.70;;;;;;4983969;28;20060;-71
2023/03/30 05:29:19;;;;;;;7.38;3.28;;;12.20;96.70;;;;;;5007029;28;20503;-71
2023/03/30 05:31:59;;;;;;;7.28;2.67;;;12.20;96.70;;;;;;5008820;28;20045;-70
2023/03/30 05:35:03;;;;;;;5.18;2.70;;;12.30;96.70;;;;;;4920981;29;20055;-70
2023/03/30 05:38:00;;;;;;;;;;;12.30;96.70;;;;;;4923874;28;20052;-70
2023/03/30 05:40:43;;;;;;;9.23;3.70;;;12.30;96.70;;;;;;4991388;28;19921;-70
2023/03/30 05:43:22;;;;;;;7.32;3.08;;;12.40;96.70;;;;;;4984764;28;20049;-71
2023/03/30 05:45:50;;;;;;;6.85;3.40;;;12.30;96.70;;;;;;5009805;28;20104;-71
2023/03/30 05:48:35;;;;;;;7.00;2.88;;;12.30;96.70;;;;;;5006143;28;20057;-71
2023/03/30 05:51:26;;;;;;;6.85;2.65;;;12.40;96.70;;;;;;4981254;28;21357;-71
2023/03/30 05:54:13;;;;;;;8.85;2.70;;;12.40;96.70;;;;;;4990028;28;20125;-71
2023/03/30 05:56:47;;;;;;;5.82;2.50;;;12.40;96.70;;;;;;5019810;28;20482;-71
2023/03/30 05:59:46;;;;;;;9.00;2.67;;;12.40;96.70;;;;;;4992718;28;20042;-72
2023/03/30 06:02:41;;;;;;;8.00;3.15;;;12.50;96.70;;;;;;5014341;28;20053;-72
2023/03/30 06:05:14;;;;;;;11.60;3.33;;;12.40;96.70;;;;;;4999996;28;20528;-72
2023/03/30 06:07:44;;;;;;;8.15;3.40;;;12.40;96.70;;;;;;4991870;28;20050;-71
2023/03/30 06:10:12;;;;;;;8.23;3.53;;;12.40;96.70;;;;;;4997906;28;20492;-72
2023/03/30 06:12:42;;;;;;;7.18;2.83;;;12.40;96.70;;;;;;5005566;28;20049;-72
2023/03/30 06:15:26;;;;;;;7.32;3.28;;;12.40;96.70;;;;;;4999618;28;20536;-73
2023/03/30 06:18:02;;;;;;;7.60;2.50;;;12.40;96.70;;;;;;5002230;28;20043;-72
2023/03/30 06:20:33;;;;;;;9.15;3.00;;;12.40;96.70;;;;;;4996702;28;20099;-71
2023/03/30 06:23:01;;;;;;;4.65;2.20;;;12.40;96.70;;;;;;4996892;28;20045;-71
2023/03/30 06:25:31;;;;;;;5.45;2.55;;;12.40;96.70;;;;;;5005722;28;20568;-71
2023/03/30 06:27:59;;;;;;;10.20;2.65;;;12.50;96.70;;;;;;5002654;28;20702;-72
2023/03/30 06:30:29;;;;;;;5.00;2.58;;;12.60;96.70;;;;;;4987642;28;20041;-72
2023/03/30 06:33:04;;;;;;;10.20;2.72;;;12.60;96.70;;;;;;4996784;28;20046;-72
2023/03/30 06:35:44;;;;;;;7.20;2.60;;;12.70;96.70;;;;;;4996621;28;20049;-72
2023/03/30 06:38:13;;;;;;;6.50;2.90;;;12.70;96.70;;;;;;5015494;28;20050;-72
2023/03/30 06:40:41;;;;;;;7.65;3.25;;;12.80;96.70;;;;;;5006880;28;20058;-72
2023/03/30 06:43:16;;;;;;;7.38;3.33;;;12.90;96.70;;;;;;4986565;28;20045;-73
2023/03/30 06:45:55;;;;;;;4.85;3.13;;;12.90;96.70;;;;;;4997502;28;20049;-73
2023/03/30 06:48:25;;;;;;;8.85;3.63;;;13.00;96.70;;;;;;5004794;28;20045;-73
2023/03/30 06:51:26;;;;;;;7.45;3.00;;;13.10;96.70;;;;;;4930688;28;20058;-72
2023/03/30 06:53:56;;;;;;;5.63;3.13;;;13.10;96.70;;;;;;4926180;28;20433;-72
2023/03/30 06:56:25;;;;;;;7.22;3.85;;;13.20;96.70;;;;;;4926425;29;20118;-72
2023/03/30 06:59:06;;;;;;;6.55;3.28;;;13.30;96.70;;;;;;4926295;29;20051;-72
2023/03/30 07:01:55;;;;;;;6.88;3.20;;;13.40;96.70;;;;;;4942303;28;20085;-72
2023/03/30 07:04:46;;;;;;;11.90;3.60;;;13.50;96.70;;;;;;4906059;28;20059;-72
2023/03/30 07:07:32;;;;;;;4.95;3.25;;;13.50;96.70;;;;;;4919883;28;20039;-73
2023/03/30 07:10:08;;;;;;;11.13;3.38;;;13.60;96.70;;;;;;4941591;28;20050;-73
2023/03/30 07:12:37;;;;;;;11.82;4.32;;;13.60;96.70;;;;;;4910376;29;20058;-72
2023/03/30 07:15:07;;;;;;;7.32;3.33;;;13.70;96.70;;;;;;4925470;28;20462;-72
2023/03/30 07:17:38;;;;;;;7.20;3.63;;;13.90;96.70;;;;;;4926152;28;20067;-71
2023/03/30 07:20:08;;;;;;;9.52;3.28;;;13.90;96.70;;;;;;4941458;28;20074;-71
2023/03/30 07:22:51;;;;;;;9.70;2.83;;;14.00;96.70;;;;;;4925769;29;20140;-72
2023/03/30 07:25:19;;;;;;;8.15;2.08;;;14.10;96.70;;;;;;4941211;28;20137;-71
2023/03/30 07:27:48;;;;;;;6.13;2.65;;;14.20;96.70;;;;;;4999047;28;20173;-72
2023/03/30 07:30:16;;;;;;;5.85;2.50;;;14.20;96.70;;;;;;4987447;28;20072;-72
2023/03/30 07:32:57;;;;;;;14.38;3.10;;;14.20;96.70;;;;;;4992108;28;20069;-72
2023/03/30 07:35:25;;;;;;;9.23;2.90;;;14.40;96.70;;;;;;5003252;28;20069;-72
2023/03/30 07:37:56;;;;;;;7.00;2.72;;;14.40;96.70;;;;;;5021909;28;20590;-72
2023/03/30 07:40:34;;;;;;;7.82;2.42;;;14.50;96.70;;;;;;4980702;28;20065;-72
2023/03/30 07:43:06;;;;;;;7.22;2.40;;;14.50;96.70;;;;;;5001612;28;20062;-71
2023/03/30 07:45:34;;;;;;;13.45;3.60;;;14.60;96.70;;;;;;4969915;28;20046;-72
2023/03/30 07:48:07;;;;;;;11.07;3.63;;;14.60;96.70;;;;;;4978142;28;20045;-73
2023/03/30 07:50:35;;;;;;;9.05;2.53;;;14.60;96.70;;;;;;4994048;28;20473;-72
2023/03/30 07:53:04;;;;;;;7.55;2.60;;;14.70;96.70;;;;;;4999589;28;20042;-73
2023/03/30 07:55:32;;;;;;;12.68;2.90;;;14.60;96.70;;;;;;4995727;28;20168;-72
2023/03/30 07:58:10;;;;;;;6.78;2.08;;;14.60;96.70;;;;;;5011100;28;20050;-72
2023/03/30 08:00:38;;;;;;;8.85;2.67;;;14.50;96.70;;;;;;4990286;28;20062;-72
2023/03/30 08:03:46;;;;;;;6.45;2.75;;;14.50;96.70;;;;;;4890339;29;20282;-72
2023/03/30 08:06:16;;;;;;;7.95;1.88;;;14.50;96.70;;;;;;4963933;28;20149;-73
2023/03/30 08:08:50;;;;;;;5.88;2.28;;;14.50;96.70;;;;;;4988392;28;20407;-72
2023/03/30 08:11:18;;;;;;;5.85;2.25;;;14.60;96.70;;;;;;4991992;28;20606;-72
2023/03/30 08:13:47;;;;;;;5.57;2.22;;;14.60;96.70;;;;;;4995244;28;20062;-72
2023/03/30 08:16:15;;;;;;;7.50;2.30;;;14.70;96.70;;;;;;4991182;28;20049;-72
2023/03/30 08:18:46;;;;;;;7.20;2.35;;;14.70;96.70;;;;;;4990574;28;20068;-72
2023/03/30 08:21:14;;;;;;;9.77;2.10;;;14.80;96.70;;;;;;4986368;28;20566;-73
2023/03/30 08:23:42;;;;;;;6.78;2.58;;;14.80;96.70;;;;;;4979721;28;20061;-73
2023/03/30 08:26:10;;;;;;;6.47;2.10;;;14.90;96.70;;;;;;4994537;28;20034;-72
2023/03/30 08:28:38;;;;;;;7.30;2.20;;;15.00;96.70;;;;;;4990951;28;20043;-72
2023/03/30 08:31:07;;;;;;;7.43;2.17;;;15.00;96.70;;;;;;5003812;28;20612;-72
2023/03/30 08:33:35;;;;;;;7.78;2.08;;;15.10;96.70;;;;;;4987419;28;20046;-73
2023/03/30 08:36:05;;;;;;;8.95;2.30;;;15.20;96.70;;;;;;4985705;28;20403;-73
2023/03/30 08:38:33;;;;;;;7.97;2.53;;;15.30;96.70;;;;;;4993307;28;20135;-72
2023/03/30 08:41:01;;;;;;;6.40;2.22;;;15.40;96.70;;;;;;4995476;28;20076;-73
2023/03/30 08:43:41;;;;;;;9.05;2.40;;;15.40;96.70;;;;;;5003577;28;20149;-74
2023/03/30 08:46:13;;;;;;;7.93;1.77;;;15.50;96.70;;;;;;5003191;28;20041;-73
2023/03/30 08:48:46;;;;;;;5.95;1.92;;;15.60;96.70;;;;;;5005716;28;20088;-73
2023/03/30 08:51:21;;;;;;;8.77;2.55;;;15.60;96.70;;;;;;5005565;28;20069;-72
2023/03/30 08:53:54;;;;;;;7.65;1.88;;;15.60;96.70;;;;;;4995635;28;20045;-72
2023/03/30 08:56:26;;;;;;;10.13;3.05;;;15.70;96.70;;;;;;4979956;28;20042;-72
2023/03/30 08:59:04;;;;;;;6.72;1.90;;;15.80;96.70;;;;;;5005268;28;20049;-72
2023/03/30 09:01:41;;;;;;;5.22;1.95;;;15.90;96.70;;;;;;5003698;28;20062;-71
2023/03/30 09:04:20;;;;;;;6.47;1.90;;;15.80;96.70;;;;;;5003629;28;20054;-72
2023/03/30 09:06:52;;;;;;;6.72;2.10;;;15.90;96.70;;;;;;5004962;28;20079;-71
2023/03/30 09:09:23;;;;;;;5.82;1.90;;;16.00;96.70;;;;;;4996629;28;20054;-72
2023/03/30 09:11:56;;;;;;;6.55;2.00;;;16.00;96.70;;;;;;5004007;28;20046;-72
2023/03/30 09:14:32;;;;;;;7.18;1.95;;;16.10;96.70;;;;;;4984973;28;20046;-74
2023/03/30 09:17:07;;;;;;;5.63;2.13;;;16.20;96.70;;;;;;4992949;28;20393;-72
2023/03/30 09:19:45;;;;;;;6.95;2.42;;;16.40;96.70;;;;;;4995040;28;20464;-71
2023/03/30 09:22:17;;;;;;;5.47;2.83;;;16.40;96.70;;;;;;4986463;28;20669;-72
2023/03/30 09:24:46;;;;;;;7.18;2.25;;;16.50;96.70;;;;;;4996606;28;20050;-72
2023/03/30 09:27:18;;;;;;;26.92;5.13;;;16.50;96.70;;;;;;5005119;28;20041;-72
2023/03/30 09:29:49;;;;;;;8.00;2.60;;;16.50;96.70;;;;;;4996865;28;20050;-72
2023/03/30 09:32:26;;;;;;;7.45;2.53;;;16.50;96.70;;;;;;4984119;28;20050;-72
2023/03/30 09:34:58;;;;;;;8.63;2.30;;;16.50;96.70;;;;;;4988860;28;20065;-72
2023/03/30 09:37:28;;;;;;;8.18;2.47;;;16.30;96.70;;;;;;5002114;28;20042;-72
2023/03/30 09:39:57;;;;;;;6.93;2.83;;;16.40;96.70;;;;;;5002460;28;20132;-72
2023/03/30 09:42:33;;;;;;;7.85;3.72;;;16.50;96.70;;;;;;5001621;28;20046;-73
2023/03/30 09:45:06;;;;;;;8.82;2.28;;;16.60;96.70;;;;;;4994030;28;20523;-72
2023/03/30 09:47:35;;;;;;;10.40;2.40;;;16.70;96.70;;;;;;4988846;28;20700;-72
2023/03/30 09:50:08;;;;;;;6.32;2.50;;;16.80;96.70;;;;;;4984448;28;20057;-72
2023/03/30 09:52:39;;;;;;;10.13;2.67;;;16.70;96.70;;;;;;5000600;28;20041;-73
2023/03/30 09:55:24;;;;;;;5.50;2.42;;;16.80;96.70;;;;;;4986875;28;20050;-72
2023/03/30 09:57:53;;;;;;;8.73;2.70;;;16.70;96.70;;;;;;4997312;28;20073;-72
2023/03/30 10:00:25;;;;;;;6.53;2.78;;;16.70;96.70;;;;;;4984031;28;20141;-72
2023/03/30 10:02:58;;;;;;;5.15;2.22;;;17.00;96.70;;;;;;4994003;28;20054;-72
2023/03/30 10:05:27;;;;;;;4.45;2.03;;;17.30;96.70;;;;;;5004791;28;20065;-73
2023/03/30 10:07:58;;;;;;;5.10;1.45;;;17.50;96.70;;;;;;5002184;28;20119;-72
2023/03/30 10:10:31;;;;;;;6.63;1.65;;;17.60;96.70;;;;;;4988131;28;20496;-73
2023/03/30 10:13:06;;;;;;;5.57;1.85;;;17.90;96.70;;;;;;4998869;28;20097;-75
2023/03/30 10:15:37;;;;;;;8.23;1.90;;;18.20;96.70;;;;;;4983839;28;20136;-72
2023/03/30 10:18:22;;;;;;;5.32;1.80;;;18.10;96.70;;;;;;4983952;28;20050;-72
2023/03/30 10:20:51;;;;;;;5.72;2.53;;;18.10;96.70;;;;;;5000836;28;20080;-72
2023/03/30 10:23:23;;;;;;;5.85;2.00;;;18.30;96.70;;;;;;4993571;28;20046;-72
2023/03/30 10:26:01;;;;;;;7.63;1.95;;;18.30;96.70;;;;;;4986770;28;20054;-72
2023/03/30 10:28:32;;;;;;;8.02;2.50;;;18.50;96.70;;;;;;5003593;28;20045;-72
2023/03/30 10:31:04;;;;;;;4.57;1.75;;;18.60;96.70;;;;;;5003336;28;20125;-73
2023/03/30 10:33:39;;;;;;;5.97;2.20;;;18.60;96.70;;;;;;4999285;28;20065;-72
2023/03/30 10:36:08;;;;;;;5.93;1.70;;;18.60;96.70;;;;;;4996799;28;20058;-72
2023/03/30 10:38:40;;;;;;;5.90;1.65;;;18.60;96.70;;;;;;5003706;28;20037;-72
2023/03/30 10:41:11;;;;;;;5.78;1.80;;;18.60;96.70;;;;;;4988137;28;20041;-72
2023/03/30 10:43:41;;;;;;;3.13;1.67;;;18.70;96.70;;;;;;4983008;28;20043;-72
2023/03/30 10:46:12;;;;;;;5.80;2.10;;;18.90;96.70;;;;;;4995781;28;20046;-73
2023/03/30 10:49:09;;;;;;;5.22;1.67;;;19.00;96.70;;;;;;5002374;28;20419;-72
2023/03/30 10:51:51;;;;;;;6.50;1.73;;;19.20;96.70;;;;;;4984315;28;20068;-74
2023/03/30 10:54:28;;;;;;;5.78;1.70;;;19.20;96.70;;;;;;4994080;28;20045;-72
2023/03/30 10:57:01;;;;;;;5.22;1.63;;;19.10;96.70;;;;;;4987567;28;20046;-73
2023/03/30 10:59:56;;;;;;;5.05;1.23;;;19.10;96.70;;;;;;4991014;28;20833;-73
2023/03/30 11:02:53;;;;;;;3.72;1.60;;;19.00;96.70;;;;;;5002481;28;20053;-73
2023/03/30 11:05:28;;;;;;;5.10;1.85;;;19.10;96.70;;;;;;4998438;28;20060;-73
2023/03/30 11:08:02;;;;;;;4.78;1.60;;;19.20;96.70;;;;;;4983792;28;20049;-74
2023/03/30 11:10:36;;;;;;;5.43;1.50;;;19.20;96.70;;;;;;5006768;28;20065;-74
2023/03/30 11:13:06;;;;;;;5.18;1.42;;;19.10;96.70;;;;;;4994887;28;20050;-73
2023/03/30 11:15:39;;;;;;;3.45;1.50;;;19.30;96.70;;;;;;5010316;28;20095;-74
2023/03/30 11:18:16;;;;;;;4.78;1.40;;;19.40;96.70;;;;;;4988286;28;20913;-74
2023/03/30 11:20:51;;;;;;;4.40;1.52;;;19.40;96.70;;;;;;4987811;28;20073;-74
2023/03/30 11:23:27;;;;;;;5.97;1.38;;;19.50;96.70;;;;;;5005460;28;20651;-72
2023/03/30 11:26:01;;;;;;;5.95;1.40;;;19.30;96.70;;;;;;5007484;28;20442;-72
2023/03/30 11:28:57;;;;;;;5.07;1.83;;;19.40;96.70;;;;;;5004409;28;20046;-74
2023/03/30 11:31:41;;;;;;;6.03;1.30;;;19.70;96.70;;;;;;5002846;28;20054;-73
2023/03/30 11:34:19;;;;;;;5.20;1.10;;;19.90;96.70;;;;;;5003728;28;20043;-73
2023/03/30 11:36:54;;;;;;;4.18;1.35;;;19.80;96.70;;;;;;5003415;28;20052;-73
2023/03/30 11:39:29;;;;;;;5.93;1.08;;;19.90;96.70;;;;;;5011900;28;20054;-73
2023/03/30 11:42:12;;;;;;;4.10;1.60;;;20.00;96.70;;;;;;4985858;28;20066;-74
2023/03/30 11:44:42;;;;;;;2.95;1.20;;;19.80;96.70;;;;;;4994114;28;20360;-73
2023/03/30 11:47:48;;;;;;;3.53;1.08;;;19.80;96.70;;;;;;5002958;28;20066;-73
2023/03/30 11:50:31;;;;;;;5.80;1.40;;;19.90;96.70;;;;;;4984887;28;20104;-73
2023/03/30 11:53:15;;;;;;;4.70;1.48;;;19.80;96.70;;;;;;4992312;28;20049;-74
2023/03/30 11:56:00;;;;;;;4.55;1.02;;;19.80;96.70;;;;;;4997113;28;20053;-74
2023/03/30 11:58:35;;;;;;;5.18;1.13;;;19.80;96.70;;;;;;4988594;28;20053;-74
2023/03/30 12:01:25;;;;;;;5.47;1.20;;;20.00;96.70;;;;;;4986347;28;20512;-74
2023/03/30 12:03:58;;;;;;;3.72;0.80;;;19.90;96.70;;;;;;4982362;28;20571;-74
2023/03/30 12:06:54;;;;;;;5.57;1.13;;;19.80;96.70;;;;;;4998134;28;20073;-73
2023/03/30 12:09:25;;;;;;;6.20;1.27;;;19.80;96.70;;;;;;4983848;28;20529;-75
2023/03/30 12:12:03;;;;;;;7.18;1.00;;;19.70;96.70;;;;;;4998183;28;20666;-75
2023/03/30 12:14:46;;;;;;;6.22;1.10;;;19.70;96.70;;;;;;4994347;28;20045;-73
2023/03/30 12:17:36;;;;;;;9.40;1.27;;;19.80;96.70;;;;;;5002029;28;20045;-73
2023/03/30 12:20:15;;;;;;;6.57;1.30;;;19.60;96.70;;;;;;4983824;28;20070;-73
2023/03/30 12:22:48;;;;;;;3.45;1.00;;;19.50;96.70;;;;;;4989860;28;20089;-73
2023/03/30 12:25:27;;;;;;;5.93;1.15;;;19.50;96.70;;;;;;4995123;28;20066;-73
2023/03/30 12:28:03;;;;;;;4.45;1.05;;;19.40;96.70;;;;;;4982640;28;20050;-72
2023/03/30 12:30:47;;;;;;;4.05;1.23;;;19.20;96.70;;;;;;4987255;28;20051;-73
2023/03/30 12:33:19;;;;;;;6.40;1.23;;;19.50;96.70;;;;;;4983964;28;20399;-73
2023/03/30 12:35:55;;;;;;;8.00;1.30;;;19.50;96.70;;;;;;4983869;28;20097;-72
2023/03/30 12:38:24;;;;;;;;;;;19.30;96.70;;;;;;4982762;28;20105;-72
2023/03/30 12:41:04;;;;;;;6.30;0.93;;;19.40;96.70;;;;;;4983394;28;19985;-73
2023/03/30 12:43:42;;;;;;;6.88;1.52;;;19.80;96.70;;;;;;4980140;28;20066;-74
2023/03/30 12:46:18;;;;;;;9.48;1.65;;;19.90;96.70;;;;;;4982630;28;20556;-72
2023/03/30 12:48:56;;;;;;;4.28;1.08;;;20.00;96.70;;;;;;4986331;28;20101;-72
2023/03/30 12:51:39;;;;;;;5.50;1.15;;;20.00;96.70;;;;;;4994434;28;20046;-72
2023/03/30 12:55:01;;;;;;;5.15;0.80;;;20.20;96.70;;;;;;4996603;28;20053;-72
2023/03/30 12:57:42;;;;;;;5.32;1.10;;;20.20;96.70;;;;;;4939544;29;20055;-72
2023/03/30 13:01:01;;;;;;;3.33;0.80;;;20.30;96.70;;;;;;4987293;28;20049;-72
2023/03/30 13:03:39;;;;;;;3.95;0.85;;;20.40;96.70;;;;;;4983022;28;20077;-72
2023/03/30 13:06:20;;;;;;;3.13;1.13;;;20.50;96.70;;;;;;4999462;28;20407;-72
2023/03/30 13:08:54;;;;;;;3.35;0.75;;;20.60;96.70;;;;;;5019874;28;20423;-72
2023/03/30 13:11:23;;;;;;;8.40;1.38;;;20.40;96.70;;;;;;4993677;28;20056;-71
2023/03/30 13:13:54;;;;;;;6.97;1.58;;;20.40;96.70;;;;;;4988325;28;20046;-72
2023/03/30 13:16:59;;;;;;;3.53;1.10;;;20.30;96.70;;;;;;4988251;28;20037;-72
2023/03/30 13:19:41;;;;;;;4.55;1.15;;;20.40;96.70;;;;;;4994231;28;20046;-72
2023/03/30 13:22:27;;;;;;;8.57;1.20;;;20.70;96.70;;;;;;4988228;28;20073;-72
2023/03/30 13:25:00;;;;;;;6.05;1.30;;;20.40;96.70;;;;;;5021983;28;20221;-72
2023/03/30 13:27:32;;;;;;;5.40;1.50;;;20.40;96.70;;;;;;5005956;28;20041;-72
2023/03/30 13:30:05;;;;;;;8.20;1.58;;;20.30;96.70;;;;;;4994264;28;20553;-72
2023/03/30 13:32:55;;;;;;;4.10;1.27;;;20.10;96.70;;;;;;5005106;28;20137;-71
2023/03/30 13:35:34;;;;;;;5.00;1.20;;;20.00;96.70;;;;;;4993412;28;20050;-72
2023/03/30 13:38:27;;;;;;;4.53;1.00;;;20.00;96.70;;;;;;4987628;28;20089;-72